Home > Products > Valid Products > TAF

000
FTUS45 KMSO 280520
TAFBTM
TAF
KBTM 280520Z 2806/2906 20010KT P6SM FEW120
     FM282100 20012G22KT P6SM SCT120
     FM290330 19006KT P6SM SCT150=



000
FTUS45 KMSO 280520
TAFSMN
TAF
KSMN 280520Z 2806/2906 VRB06KT 2SM FU SCT120
      AMD LTD TO CLD VIS AND WIND=



000
FTUS45 KMSO 280520
TAFMSO
TAF
KMSO 280520Z 2806/2906 VRB03KT 4SM FU SKC
     FM282200 30010G15KT 4SM FU SCT100
     FM290200 VRB03KT 2SM FU SKC=



000
FTUS45 KMSO 280520
TAFGPI
TAF
KGPI 280520Z 2806/2906 VRB04KT 2SM FU SKC
     FM282100 20012G20KT 4SM FU SCT100
     FM290100 26005KT 2SM FU SKC=



000
FTUS45 KMSO 280520
TAFBTM
TAF
KBTM 280520Z 2806/2906 20010KT P6SM FEW120
     FM282100 20012G22KT P6SM SCT120
     FM290330 19006KT P6SM SCT150=



000
FTUS45 KMSO 280520
TAFMSO
TAF
KMSO 280520Z 2806/2906 VRB03KT 4SM FU SKC
     FM282200 30010G15KT 4SM FU SCT100
     FM290200 VRB03KT 2SM FU SKC=



000
FTUS45 KMSO 280520
TAFSMN
TAF
KSMN 280520Z 2806/2906 VRB06KT 2SM FU SCT120
      AMD LTD TO CLD VIS AND WIND=



000
FTUS45 KMSO 280520
TAFGPI
TAF
KGPI 280520Z 2806/2906 VRB04KT 2SM FU SKC
     FM282100 20012G20KT 4SM FU SCT100
     FM290100 26005KT 2SM FU SKC=



000
FTUS45 KMSO 280246 AAA
TAFSMN
TAF AMD
KSMN 280246Z 2803/2824 VRB06KT 2SM FU SCT120
      AMD LTD TO CLD VIS AND WIND=



000
FTUS45 KMSO 280246 AAA
TAFSMN
TAF AMD
KSMN 280246Z 2803/2824 VRB06KT 2SM FU SCT120
      AMD LTD TO CLD VIS AND WIND=



000
FTUS45 KMSO 280231 AAA
TAFGPI
TAF AMD
KGPI 280231Z 2803/2824 VRB04KT 2SM FU SKC=



000
FTUS45 KMSO 280231 AAA
TAFBTM
TAF AMD
KBTM 280231Z 2803/2824 16010G20KT P6SM VCTS SCT080CB BKN100
     FM280330 16006KT P6SM SCT150=



000
FTUS45 KMSO 280030 AAA
TAFMSO
TAF AMD
KMSO 280030Z 2801/2824 32010G18KT 3SM FU SCT120
     FM280300 VRB06KT 3SM FU SKC=



000
FTUS45 KMSO 280030 AAA
TAFMSO
TAF AMD
KMSO 280030Z 2801/2824 32010G18KT 3SM FU SCT120
     FM280300 VRB06KT 3SM FU SKC=



000
FTUS45 KMSO 272320
TAFMSO
TAF
KMSO 272320Z 2800/2824 VRB06KT 1 1/2SM FU SCT120
     FM280300 VRB04KT 3SM FU SKC=



000
FTUS45 KMSO 272320
TAFMSO
TAF
KMSO 272320Z 2800/2824 VRB06KT 1 1/2SM FU SCT120
     FM280300 VRB04KT 3SM FU SKC=



000
FTUS45 KMSO 272320
TAFGPI
TAF
KGPI 272320Z 2800/2824 18007KT 2SM FU SCT150
     FM280300 VRB03KT 3SM FU SKC=



000
FTUS45 KMSO 272320
TAFBTM
TAF
KBTM 272320Z 2800/2824 30008KT P6SM VCSH BKN100
     FM280200 16006KT P6SM SCT150=



000
FTUS45 KMSO 272320
TAFSMN
TAF
KSMN 272320Z 2800/2824 35006KT P6SM VCSH BKN100
     FM280300 VRB03KT 6SM FU SCT120
      AMD LTD TO CLD VIS AND WIND=



000
FTUS45 KMSO 272320
TAFBTM
TAF
KBTM 272320Z 2800/2824 30008KT P6SM VCSH BKN100
     FM280200 16006KT P6SM SCT150=



000
FTUS45 KMSO 272320
TAFSMN
TAF
KSMN 272320Z 2800/2824 35006KT P6SM VCSH BKN100
     FM280300 VRB03KT 6SM FU SCT120
      AMD LTD TO CLD VIS AND WIND=



000
FTUS45 KMSO 272320
TAFGPI
TAF
KGPI 272320Z 2800/2824 18007KT 2SM FU SCT150
     FM280300 VRB03KT 3SM FU SKC=



000
FTUS45 KMSO 272158 AAB
TAFGPI
TAF AMD
KGPI 272158Z 2722/2818 16006KT 2SM FU SCT150
     FM280000 21007KT 4SM FU SCT150
     FM280300 VRB03KT 4SM FU SKC=



000
FTUS45 KMSO 272156 AAB
TAFMSO
TAF AMD
KMSO 272156Z 2722/2818 VRB05KT 1 1/2SM FU SCT120
     FM280200 VRB06KT 3SM FU SCT150=



000
FTUS45 KMSO 272154 AAA
TAFBTM
TAF AMD
KBTM 272154Z 2722/2818 01011KT P6SM VCTS SCT080CB BKN100
     FM280000 31011KT P6SM VCSH BKN100
     FM280200 16006KT P6SM BKN150=



000
FTUS45 KMSO 271839 AAA
TAFGPI
TAF AMD
KGPI 271839Z 2719/2818 VRB03KT 2SM FU SCT150
     FM272200 21010KT 6SM FU SCT150
     FM280300 VRB03KT 6SM FU SKC=



000
FTUS45 KMSO 271839 AAA
TAFGPI
TAF AMD
KGPI 271839Z 2719/2818 VRB03KT 2SM FU SCT150
     FM272200 21010KT 6SM FU SCT150
     FM280300 VRB03KT 6SM FU SKC=



000
FTUS45 KMSO 271740
TAFMSO
TAF
KMSO 271740Z 2718/2818 VRB03KT 4SM FU BKN100
     FM272200 30010KT 5SM FU SCT120
     FM280200 30006KT 5SM FU SCT150=



000
FTUS45 KMSO 271740
TAFMSO
TAF
KMSO 271740Z 2718/2818 VRB03KT 4SM FU BKN100
     FM272200 30010KT 5SM FU SCT120
     FM280200 30006KT 5SM FU SCT150=



000
FTUS45 KMSO 271740
TAFSMN
TAF
KSMN 271740Z 2718/2818 19006KT P6SM SCT120
     FM272000 31008KT 6SM FU VCSH BKN100
     FM280300 VRB03KT 6SM FU SCT120
      AMD LTD TO CLD VIS AND WIND=



000
FTUS45 KMSO 271740
TAFBTM
TAF
KBTM 271740Z 2718/2818 VRB06KT P6SM BKN120
     FM272000 30012KT P6SM VCSH BKN100
     FM280200 31006KT P6SM BKN150=



000
FTUS45 KMSO 271740
TAFGPI
TAF
KGPI 271740Z 2718/2818 VRB03KT 3SM FU SCT150
     FM272200 21010G18KT 6SM FU SCT150
     FM280300 VRB03KT 6SM FU SKC=



000
FTUS45 KMSO 271740
TAFGPI
TAF
KGPI 271740Z 2718/2818 VRB03KT 3SM FU SCT150
     FM272200 21010G18KT 6SM FU SCT150
     FM280300 VRB03KT 6SM FU SKC=



000
FTUS45 KMSO 271740
TAFBTM
TAF
KBTM 271740Z 2718/2818 VRB06KT P6SM BKN120
     FM272000 30012KT P6SM VCSH BKN100
     FM280200 31006KT P6SM BKN150=



000
FTUS45 KMSO 271740
TAFSMN
TAF
KSMN 271740Z 2718/2818 19006KT P6SM SCT120
     FM272000 31008KT 6SM FU VCSH BKN100
     FM280300 VRB03KT 6SM FU SCT120
      AMD LTD TO CLD VIS AND WIND=



000
FTUS45 KMSO 271120
TAFSMN
TAF
KSMN 271120Z 2712/2812 19012G18KT P6SM BKN120
     FM271500 19006KT 6SM FU SCT120
     FM272000 31008KT P6SM VCSH BKN100
      AMD LTD TO CLD VIS AND WIND=



000
FTUS45 KMSO 271120
TAFMSO
TAF
KMSO 271120Z 2712/2812 VRB03KT 5SM FU SCT150
     FM271500 VRB03KT 3SM FU BKN120
     FM272200 30010G20KT 5SM FU SCT120
     FM280200 30006KT 5SM FU SCT150=



000
FTUS45 KMSO 271120
TAFSMN
TAF
KSMN 271120Z 2712/2812 19012G18KT P6SM BKN120
     FM271500 19006KT 6SM FU SCT120
     FM272000 31008KT P6SM VCSH BKN100
      AMD LTD TO CLD VIS AND WIND=



000
FTUS45 KMSO 271120
TAFMSO
TAF
KMSO 271120Z 2712/2812 VRB03KT 5SM FU SCT150
     FM271500 VRB03KT 3SM FU BKN120
     FM272200 30010G20KT 5SM FU SCT120
     FM280200 30006KT 5SM FU SCT150=



000
FTUS45 KMSO 271120
TAFBTM
TAF
KBTM 271120Z 2712/2812 16010KT P6SM SKC
     FM271500 VRB06KT 5SM FU BKN120
     FM272000 30010G20KT P6SM VCSH BKN100
     FM280200 31008KT P6SM BKN150=



000
FTUS45 KMSO 271120
TAFGPI
TAF
KGPI 271120Z 2712/2812 VRB03KT 6SM FU SCT150
     FM271500 VRB03KT 3SM FU SCT150
     FM272200 21012G22KT 6SM FU SCT150
     FM280300 24005KT 6SM FU SKC=



000
FTUS45 KMSO 271120
TAFBTM
TAF
KBTM 271120Z 2712/2812 16010KT P6SM SKC
     FM271500 VRB06KT 5SM FU BKN120
     FM272000 30010G20KT P6SM VCSH BKN100
     FM280200 31008KT P6SM BKN150=



000
FTUS45 KMSO 271120
TAFGPI
TAF
KGPI 271120Z 2712/2812 VRB03KT 6SM FU SCT150
     FM271500 VRB03KT 3SM FU SCT150
     FM272200 21012G22KT 6SM FU SCT150
     FM280300 24005KT 6SM FU SKC=



000
FTUS45 KMSO 270525
TAFGPI
TAF
KGPI 270525Z 2706/2806 VRB05KT 5SM FU SKC
     FM271200 00000KT 2SM FU SKC
     FM272200 21012G22KT 6SM FU SCT120
     FM280300 24005KT 6SM FU SKC=



000
FTUS45 KMSO 270525
TAFSMN
TAF
KSMN 270525Z 2706/2806 20012G20KT P6SM VCSH BKN120
     FM270900 19006KT P6SM SCT120
     FM272000 31008KT P6SM VCSH BKN100
      AMD LTD TO CLD VIS AND WIND=



000
FTUS45 KMSO 270525
TAFBTM
TAF
KBTM 270525Z 2706/2806 16010KT P6SM SKC
     FM271200 VRB06KT 5SM FU BKN120
     FM272000 30010G20KT P6SM VCSH BKN100
     FM280200 31008KT P6SM BKN150=



000
FTUS45 KMSO 270525
TAFMSO
TAF
KMSO 270525Z 2706/2806 VRB03KT 5SM FU BKN150
     FM271200 VRB03KT 2SM FU BKN120
     FM272200 30010G20KT 5SM FU SCT120
     FM280200 30006KT 6SM FU SCT150=



000
FTUS45 KMSO 270525
TAFBTM
TAF
KBTM 270525Z 2706/2806 16010KT P6SM SKC
     FM271200 VRB06KT 5SM FU BKN120
     FM272000 30010G20KT P6SM VCSH BKN100
     FM280200 31008KT P6SM BKN150=



000
FTUS45 KMSO 270525
TAFGPI
TAF
KGPI 270525Z 2706/2806 VRB05KT 5SM FU SKC
     FM271200 00000KT 2SM FU SKC
     FM272200 21012G22KT 6SM FU SCT120
     FM280300 24005KT 6SM FU SKC=



000
FTUS45 KMSO 270525
TAFMSO
TAF
KMSO 270525Z 2706/2806 VRB03KT 5SM FU BKN150
     FM271200 VRB03KT 2SM FU BKN120
     FM272200 30010G20KT 5SM FU SCT120
     FM280200 30006KT 6SM FU SCT150=



000
FTUS45 KMSO 270525
TAFSMN
TAF
KSMN 270525Z 2706/2806 20012G20KT P6SM VCSH BKN120
     FM270900 19006KT P6SM SCT120
     FM272000 31008KT P6SM VCSH BKN100
      AMD LTD TO CLD VIS AND WIND=



000
FTUS45 KMSO 270121 AAA
TAFGPI
TAF AMD
KGPI 270121Z 2701/2724 VRB05KT 5SM FU SKC
     FM271200 00000KT 2SM FU SKC
     FM272100 20010KT P6SM SCT120=



000
FTUS45 KMSO 270121 AAA
TAFSMN
TAF AMD
KSMN 270121Z 2701/2724 20012G20KT 6SM FU VCSH BKN120
     FM270900 19006KT P6SM SCT120
     FM272000 31008KT P6SM VCSH BKN100
      AMD LTD TO CLD VIS AND WIND=



000
FTUS45 KMSO 270121 AAA
TAFSMN
TAF AMD
KSMN 270121Z 2701/2724 20012G20KT 6SM FU VCSH BKN120
     FM270900 19006KT P6SM SCT120
     FM272000 31008KT P6SM VCSH BKN100
      AMD LTD TO CLD VIS AND WIND=



000
FTUS45 KMSO 262324
TAFSMN
TAF
KSMN 262324Z 2700/2724 VRB05KT 6SM FU SKC
     FM270100 16010G20KT 6SM FU VCSH BKN120
     FM270900 19006KT P6SM SCT120
     FM272000 31008KT P6SM VCSH BKN100
      AMD LTD TO CLD VIS AND WIND=



000
FTUS45 KMSO 262324
TAFMSO
TAF
KMSO 262324Z 2700/2724 VRB06KT 5SM FU SCT150
     FM271200 VRB03KT 2SM FU BKN120
     FM272200 30010G20KT 5SM FU SCT120=



000
FTUS45 KMSO 262324
TAFGPI
TAF
KGPI 262324Z 2700/2724 VRB05KT 6SM FU SKC
     FM271200 00000KT 2SM FU SKC
     FM272100 20010KT P6SM SCT120=



000
FTUS45 KMSO 262324
TAFSMN
TAF
KSMN 262324Z 2700/2724 VRB05KT 6SM FU SKC
     FM270100 16010G20KT 6SM FU VCSH BKN120
     FM270900 19006KT P6SM SCT120
     FM272000 31008KT P6SM VCSH BKN100
      AMD LTD TO CLD VIS AND WIND=



000
FTUS45 KMSO 262324
TAFBTM
TAF
KBTM 262324Z 2700/2724 16010KT P6SM SKC
     FM270600 VRB06KT P6SM VCSH BKN100
     FM271200 VRB06KT 5SM FU BKN120
     FM272000 30010G20KT P6SM VCSH BKN100=



000
FTUS45 KMSO 262324
TAFMSO
TAF
KMSO 262324Z 2700/2724 VRB06KT 5SM FU SCT150
     FM271200 VRB03KT 2SM FU BKN120
     FM272200 30010G20KT 5SM FU SCT120=



000
FTUS45 KMSO 262324
TAFGPI
TAF
KGPI 262324Z 2700/2724 VRB05KT 6SM FU SKC
     FM271200 00000KT 2SM FU SKC
     FM272100 20010KT P6SM SCT120=



000
FTUS45 KMSO 262324
TAFBTM
TAF
KBTM 262324Z 2700/2724 16010KT P6SM SKC
     FM270600 VRB06KT P6SM VCSH BKN100
     FM271200 VRB06KT 5SM FU BKN120
     FM272000 30010G20KT P6SM VCSH BKN100=



000
FTUS45 KMSO 262210 AAA
TAFGPI
TAF AMD
KGPI 262210Z 2622/2718 VRB05KT 6SM FU SKC
     FM271000 00000KT 2SM FU SKC=



000
FTUS45 KMSO 261734
TAFMSO
TAF
KMSO 261734Z 2618/2718 VRB06KT 3SM FU SCT150=



000
FTUS45 KMSO 261734
TAFSMN
TAF
KSMN 261734Z 2618/2718 VRB03KT 6SM FU SKC
     FM270100 19010KT 6SM FU BKN120
     FM270900 19006KT P6SM SCT120
      AMD LTD TO CLD VIS AND WIND=



000
FTUS45 KMSO 261734
TAFBTM
TAF
KBTM 261734Z 2618/2718 15006KT 5SM FU SKC
     FM270400 15010KT 6SM FU SCT120
     FM271200 VRB06KT 5SM FU BKN120=



000
FTUS45 KMSO 261734
TAFGPI
TAF
KGPI 261734Z 2618/2718 VRB06KT 2SM FU SKC=



000
FTUS45 KMSO 261734
TAFBTM
TAF
KBTM 261734Z 2618/2718 15006KT 5SM FU SKC
     FM270400 15010KT 6SM FU SCT120
     FM271200 VRB06KT 5SM FU BKN120=



000
FTUS45 KMSO 261734
TAFGPI
TAF
KGPI 261734Z 2618/2718 VRB06KT 2SM FU SKC=



000
FTUS45 KMSO 261734
TAFMSO
TAF
KMSO 261734Z 2618/2718 VRB06KT 3SM FU SCT150=



000
FTUS45 KMSO 261734
TAFSMN
TAF
KSMN 261734Z 2618/2718 VRB03KT 6SM FU SKC
     FM270100 19010KT 6SM FU BKN120
     FM270900 19006KT P6SM SCT120
      AMD LTD TO CLD VIS AND WIND=



000
FTUS45 KMSO 261508 AAA
TAFBTM
TAF AMD
KBTM 261508Z 2615/2712 12005KT 5SM FU SCT150=



000
FTUS45 KMSO 261507 AAB
TAFMSO
TAF AMD
KMSO 261507Z 2615/2712 VRB06KT 3SM FU SCT150=



000
FTUS45 KMSO 261505 AAA
TAFGPI
TAF AMD
KGPI 261505Z 2615/2712 VRB06KT 3SM FU SKC=



000
FTUS45 KMSO 261120
TAFSMN
TAF
KSMN 261120Z 2612/2712 VRB03KT P6SM SKC
     FM262200 20006KT P6SM VCSH BKN120
      AMD LTD TO CLD VIS AND WIND=



000
FTUS45 KMSO 261120
TAFMSO
TAF
KMSO 261120Z 2612/2712 34006KT 5SM FU SKC
     FM261800 VRB03KT 3SM FU SKC
     FM270000 31010KT 5SM FU SKC=



000
FTUS45 KMSO 261120
TAFGPI
TAF
KGPI 261120Z 2612/2712 VRB03KT 6SM FU SKC
     FM261800 12005KT 3SM FU SKC
     FM270000 16006KT 6SM FU SKC=



000
FTUS45 KMSO 261120
TAFBTM
TAF
KBTM 261120Z 2612/2712 12005KT P6SM SCT150
     FM261500 00000KT 3SM FU SKC
     FM262200 15006KT 5SM FU VCSH BKN120=



000
FTUS45 KMSO 261120
TAFSMN
TAF
KSMN 261120Z 2612/2712 VRB03KT P6SM SKC
     FM262200 20006KT P6SM VCSH BKN120
      AMD LTD TO CLD VIS AND WIND=



000
FTUS45 KMSO 261120
TAFMSO
TAF
KMSO 261120Z 2612/2712 34006KT 5SM FU SKC
     FM261800 VRB03KT 3SM FU SKC
     FM270000 31010KT 5SM FU SKC=



000
FTUS45 KMSO 261120
TAFGPI
TAF
KGPI 261120Z 2612/2712 VRB03KT 6SM FU SKC
     FM261800 12005KT 3SM FU SKC
     FM270000 16006KT 6SM FU SKC=



000
FTUS45 KMSO 261120
TAFBTM
TAF
KBTM 261120Z 2612/2712 12005KT P6SM SCT150
     FM261500 00000KT 3SM FU SKC
     FM262200 15006KT 5SM FU VCSH BKN120=



000
FTUS45 KMSO 260520
TAFGPI
TAF
KGPI 260520Z 2606/2706 29005KT 6SM FU SKC
     FM261900 12005KT 3SM FU SKC
     FM270000 16006KT 6SM FU SKC=



000
FTUS45 KMSO 260520
TAFSMN
TAF
KSMN 260520Z 2606/2706 VRB03KT P6SM SKC
     FM262200 20006KT P6SM VCSH BKN120
      AMD LTD TO CLD VIS AND WIND=



000
FTUS45 KMSO 260520
TAFGPI
TAF
KGPI 260520Z 2606/2706 29005KT 6SM FU SKC
     FM261900 12005KT 3SM FU SKC
     FM270000 16006KT 6SM FU SKC=



000
FTUS45 KMSO 260520
TAFMSO
TAF
KMSO 260520Z 2606/2706 34006KT 5SM FU SKC
     FM261800 VRB03KT 3SM FU SKC
     FM270000 31010KT 5SM FU SKC=



000
FTUS45 KMSO 260520
TAFMSO
TAF
KMSO 260520Z 2606/2706 34006KT 5SM FU SKC
     FM261800 VRB03KT 3SM FU SKC
     FM270000 31010KT 5SM FU SKC=



000
FTUS45 KMSO 260520
TAFBTM
TAF
KBTM 260520Z 2606/2706 14005KT P6SM SCT150
     FM261200 00000KT 3SM FU SKC
     FM262100 15006KT P6SM VCSH BKN120=



000
FTUS45 KMSO 260520
TAFBTM
TAF
KBTM 260520Z 2606/2706 14005KT P6SM SCT150
     FM261200 00000KT 3SM FU SKC
     FM262100 15006KT P6SM VCSH BKN120=



000
FTUS45 KMSO 260520
TAFSMN
TAF
KSMN 260520Z 2606/2706 VRB03KT P6SM SKC
     FM262200 20006KT P6SM VCSH BKN120
      AMD LTD TO CLD VIS AND WIND=



000
FTUS45 KMSO 252336
TAFMSO
TAF
KMSO 252336Z 2600/2624 32006KT 3SM FU SKC
     FM260200 35007KT 4SM FU SKC
     FM260400 VRB03KT 4SM FU SKC=



000
FTUS45 KMSO 252336
TAFSMN
TAF
KSMN 252336Z 2600/2624 22006KT P6SM SKC
     FM260300 VRB03KT P6SM SKC
     FM262200 20006KT P6SM VCSH BKN120
      AMD LTD TO CLD VIS AND WIND=



000
FTUS45 KMSO 252336
TAFGPI
TAF
KGPI 252336Z 2600/2624 16003KT 6SM FU SKC
     FM260300 VRB03KT 4SM FU SKC=



000
FTUS45 KMSO 252336
TAFBTM
TAF
KBTM 252336Z 2600/2624 VRB05KT P6SM SCT120
     FM260800 VRB05KT 5SM FU SCT120
     FM261200 00000KT 3SM FU SKC
     FM261900 15006KT P6SM VCSH BKN120=



000
FTUS45 KMSO 251731
TAFMSO
TAF
KMSO 251731Z 2518/2618 VRB04KT 2SM FU SKC
     FM252200 32009KT 2SM FU SKC
     FM260200 35007KT 4SM FU SKC=



000
FTUS45 KMSO 251731
TAFGPI
TAF
KGPI 251731Z 2518/2618 VRB05KT 2SM FU SCT030
     FM252100 16008KT 2SM FU SKC
     FM260300 VRB03KT 4SM FU SKC=



000
FTUS45 KMSO 251731
TAFSMN
TAF
KSMN 251731Z 2518/2618 VRB03KT P6SM SKC
     FM252300 28008KT P6SM SKC
     FM260300 VRB03KT P6SM SKC
      AMD LTD TO CLD VIS AND WIND=



000
FTUS45 KMSO 251731
TAFBTM
TAF
KBTM 251731Z 2518/2618 VRB06KT 4SM FU SKC
     FM252000 24011KT 4SM FU SCT120
     FM260100 27008KT 6SM FU SCT120=



000
FTUS45 KMSO 251731
TAFGPI
TAF
KGPI 251731Z 2518/2618 VRB05KT 2SM FU SCT030
     FM252100 16008KT 2SM FU SKC
     FM260300 VRB03KT 4SM FU SKC=



000
FTUS45 KMSO 251731
TAFSMN
TAF
KSMN 251731Z 2518/2618 VRB03KT P6SM SKC
     FM252300 28008KT P6SM SKC
     FM260300 VRB03KT P6SM SKC
      AMD LTD TO CLD VIS AND WIND=



000
FTUS45 KMSO 251731
TAFMSO
TAF
KMSO 251731Z 2518/2618 VRB04KT 2SM FU SKC
     FM252200 32009KT 2SM FU SKC
     FM260200 35007KT 4SM FU SKC=



000
FTUS45 KMSO 251731
TAFBTM
TAF
KBTM 251731Z 2518/2618 VRB06KT 4SM FU SKC
     FM252000 24011KT 4SM FU SCT120
     FM260100 27008KT 6SM FU SCT120=



000
FTUS45 KMSO 251422 AAB
TAFMSO
TAF AMD
KMSO 251422Z 2514/2612 VRB04KT 2SM FU SKC
     FM252200 32010KT 2SM FU SKC
     FM260200 35007KT 4SM FU SKC=



000
FTUS45 KMSO 251422 AAA
TAFGPI
TAF AMD
KGPI 251422Z 2514/2612 VRB05KT 2SM FU SCT030
     FM252100 14007KT 2SM FU SKC
     FM260300 VRB03KT 4SM FU SKC=



000
FTUS45 KMSO 251422 AAA
TAFGPI
TAF AMD
KGPI 251422Z 2514/2612 VRB05KT 2SM FU SCT030
     FM252100 14007KT 2SM FU SKC
     FM260300 VRB03KT 4SM FU SKC=



000
FTUS45 KMSO 251120
TAFSMN
TAF
KSMN 251120Z 2512/2612 VRB03KT P6SM SKC
     FM252300 28008KT P6SM SKC
      AMD LTD TO CLD VIS AND WIND=



000
FTUS45 KMSO 251120
TAFBTM
TAF
KBTM 251120Z 2512/2612 16006KT 4SM FU SKC
     FM252000 24010G15KT 6SM FU SCT150
     FM260100 27008KT P6SM SCT150=



000
FTUS45 KMSO 251120
TAFGPI
TAF
KGPI 251120Z 2512/2612 VRB03KT 4SM FU SCT030
     FM252100 14007KT 2SM FU SKC
     FM260300 VRB03KT 4SM FU SKC=



000
FTUS45 KMSO 251120
TAFMSO
TAF
KMSO 251120Z 2512/2612 VRB03KT 3SM FU SKC
     FM252200 32010KT 2SM FU SKC
     FM260200 35007KT 4SM FU SKC=



    US Dept of Commerce
    National Oceanic and Atmospheric Administration
    National Weather Service
    1325 East West Highway
    Silver Spring, MD 20910
    Page Author: NWS Internet Services Team
Disclaimer
Information Quality
Credits
Glossary
Privacy Policy
Freedom of Information Act (FOIA)
About Us
Career Opportunities